Terminal Aerodrome Forecast
Issued by NWS Blacksburg, VA

Home | Current Version | Previous Version | Text Only | Print | Product List | Glossary On
Versions: 1 2 3 4 5 6 7 8 9 10 11 12 13 14 15
000
FTUS41 KRNK 010938 AAB
TAFDAN
TAF AMD
KDAN 010938Z 0110/0206 03008KT P6SM -RA OVC035
     FM011300 03011G22KT P6SM -RA SCT012 OVC025
     FM011800 36015G25KT P6SM OVC035
     FM012300 32013G27KT P6SM SCT045
     FM020300 33012G22KT P6SM SCT100=

USA.gov is the U.S. government's official web portal to all federal, state and local government web resources and services.